Airfield :
LOGIN :

Register | Disclaimer

   EN    FR    IT 

 










Legend :    VFR   Marginal VFR   IFR   Intensive IFR   Very Intensive IFR
Visi :
Ceiling :
>= 8 km
>= 3000ft
5 to 8 km
1000 to 3000 ft
1500m to 5 km
500 to 1000 ft
800 to 1500m
200 to 500 ft
< 800m
< 200 ft
Symbols :   Thunderstorms  Fog  Heavy snow  Heavy precipitations  Wind > 20 kt
SIGMETs :     Misc.  Thunderstorms  Icing  Turbulence  Mountain Waves  Volcanic Ashes







- Airport Elevation : 1325 ft
- IATA code : EBU
- Download approach charts


LFMH - St-Etienne Boutheon

CURRENT METAR :
  • 191330Z AUTO 03004KT 360V070 9999 OVC023 08/03 Q1023 TEMPO 3000 -DZ BR OVC013

EXPIRED METARs :
  • 191300Z AUTO VRB02KT 9999 OVC023 08/02 Q1023 TEMPO 3000 -DZ BR OVC013
  • 191230Z AUTO VRB01KT 9999 OVC023 08/02 Q1022 TEMPO 3000 -DZ BR OVC013
  • 191200Z AUTO VRB02KT 9999 OVC025 08/02 Q1023 TEMPO 3000 -DZ BR OVC013
  • 191130Z AUTO VRB02KT 9999 OVC022 07/01 Q1023 TEMPO 3000 -DZ BR OVC013
  • 191100Z AUTO 00000KT 9999 OVC025 07/01 Q1023 NOSIG

TAF TAF LFMH
Valid from the 19 at 09:00 until the 20 at 09:00 UTC


190800Z 1909/2009 VRB03KT 9999 SCT018 BKN060
BECMG 1911/1913 BKN020
PROB40
TEMPO 1913/1924 3000 -DZ BR OVC013
TEMPO 2002/2009 4000 BR BKN006
ATIS : +33 4 77 36 17 51
No reported NOTAMs for that airfield.



MET'MAP, your aeronautical weather chart ! - Copyright ORBIFLY December 2007 - Disclaimer

ORBIFLY MET'MAP TEAM :

Programming & Development : Alexandra Zaïnal
Concept & Development : Baudouin d'Aumeries
Co-Development & Prog : Marc-Olivier Méhu
Technical & hardware support : Manuel Goepfert

Contact : metmap@orbifly.com




SOURCES & CREDITS :

   NOAA